Time;durP1;ratioP1;P1;durP2;ratioP2;P2;SDS_P1;SDS_P2;PMS_P1;PMS_P2;Temp;Humidity;BMP_temperature;BMP_pressure;BME280_temperature;BME280_humidity;BME280_pressure;Samples;Min_cycle;Max_cycle;Signal;HPM_P1;HPM_P2
2022/09/18 00:02:04;;;;;;;;;;;12.70;99.90;;;;;;8407007;28;19928;-73
2022/09/18 00:06:07;;;;;;;;;;;12.70;99.90;;;;;;8403602;28;19928;-73
2022/09/18 00:10:09;;;;;;;;;;;12.70;99.90;;;;;;8401761;28;19929;-73
2022/09/18 00:14:12;;;;;;;;;;;12.70;99.90;;;;;;8406822;28;19938;-73
2022/09/18 00:18:13;;;;;;;;;;;12.70;99.90;;;;;;8404608;28;20015;-73
2022/09/18 00:22:15;;;;;;;;;;;12.70;99.90;;;;;;8409997;28;19939;-74
2022/09/18 00:26:17;;;;;;;;;;;12.70;99.90;;;;;;8407624;28;19942;-73
2022/09/18 00:30:19;;;;;;;;;;;12.70;99.90;;;;;;8401909;28;19936;-73
2022/09/18 00:34:21;;;;;;;;;;;12.70;99.90;;;;;;8405229;28;19935;-73
2022/09/18 00:38:22;;;;;;;;;;;12.70;99.90;;;;;;8403581;28;19971;-73
2022/09/18 00:42:24;;;;;;;;;;;12.80;99.90;;;;;;8410268;28;19983;-73
2022/09/18 00:46:29;;;;;;;;;;;12.80;99.90;;;;;;8435788;27;20411;-73
2022/09/18 00:50:30;;;;;;;;;;;12.80;99.90;;;;;;8404306;28;19931;-73
2022/09/18 00:54:34;;;;;;;;;;;12.80;99.90;;;;;;8409344;28;19931;-73
2022/09/18 00:58:36;;;;;;;;;;;12.80;99.90;;;;;;8400486;28;20387;-73
2022/09/18 01:02:39;;;;;;;;;;;12.70;99.90;;;;;;8421284;28;19931;-74
2022/09/18 01:06:50;;;;;;;;;;;12.70;99.90;;;;;;8407330;28;19932;-73
2022/09/18 01:11:11;;;;;;;;;;;12.70;99.90;;;;;;8406433;28;19946;-73
2022/09/18 01:15:17;;;;;;;;;;;12.70;99.90;;;;;;8398016;28;20380;-73
2022/09/18 01:19:25;;;;;;;;;;;12.70;99.90;;;;;;8409753;28;19929;-73
2022/09/18 01:23:30;;;;;;;;;;;12.70;99.90;;;;;;8411233;28;19931;-73
2022/09/18 01:27:42;;;;;;;;;;;12.60;99.90;;;;;;8411139;28;20399;-74
2022/09/18 01:31:46;;;;;;;;;;;12.60;99.90;;;;;;8405052;28;19975;-73
2022/09/18 01:35:51;;;;;;;;;;;12.60;99.90;;;;;;8406251;28;19931;-74
2022/09/18 01:40:03;;;;;;;;;;;12.50;99.90;;;;;;8400948;28;19955;-73
2022/09/18 01:44:12;;;;;;;;;;;12.50;99.90;;;;;;8406469;28;19925;-73
2022/09/18 01:48:19;;;;;;;;;;;12.40;99.90;;;;;;8423567;28;19943;-73
2022/09/18 01:52:41;;;;;;;;;;;12.40;99.90;;;;;;8410614;28;20011;-73
2022/09/18 01:56:45;;;;;;;;;;;12.40;99.90;;;;;;8412418;28;19966;-74
2022/09/18 02:00:49;;;;;;;;;;;12.40;99.90;;;;;;8407137;28;19935;-74
2022/09/18 02:04:54;;;;;;;;;;;12.40;99.90;;;;;;8414604;28;19931;-73
2022/09/18 02:08:58;;;;;;;;;;;12.40;99.90;;;;;;8410771;28;19923;-73
2022/09/18 02:13:00;;;;;;;;;;;12.40;99.90;;;;;;8452816;27;19935;-73
2022/09/18 02:17:05;;;;;;;;;;;12.50;99.90;;;;;;8412546;28;21632;-73
2022/09/18 02:21:08;;;;;;;;;;;12.50;99.90;;;;;;8408900;28;19999;-73
2022/09/18 02:25:12;;;;;;;;;;;12.50;99.90;;;;;;8455833;27;19928;-73
2022/09/18 02:29:15;;;;;;;;;;;12.50;99.90;;;;;;8424483;27;21501;-73
2022/09/18 02:33:23;;;;;;;;;;;12.50;99.90;;;;;;8415652;28;19936;-73
2022/09/18 02:37:35;;;;;;;;;;;12.50;99.90;;;;;;8400463;28;19928;-73
2022/09/18 02:41:39;;;;;;;;;;;12.50;99.90;;;;;;8403724;28;20037;-74
2022/09/18 02:45:59;;;;;;;;;;;12.50;99.90;;;;;;8403842;28;20282;-73
2022/09/18 02:50:07;;;;;;;;;;;12.50;99.90;;;;;;8410596;28;20410;-73
2022/09/18 02:54:12;;;;;;;;;;;12.60;99.90;;;;;;8404808;28;20443;-73
2022/09/18 02:58:16;;;;;;;;;;;12.60;99.90;;;;;;8397269;28;20280;-73
2022/09/18 03:02:21;;;;;;;;;;;12.60;99.90;;;;;;8407592;28;19931;-73
2022/09/18 03:06:23;;;;;;;;;;;12.60;99.90;;;;;;8403235;28;19932;-72
2022/09/18 03:10:25;;;;;;;;;;;12.60;99.90;;;;;;8396392;28;20497;-73
2022/09/18 03:14:27;;;;;;;;;;;12.60;99.90;;;;;;8396408;28;19931;-73
2022/09/18 03:18:28;;;;;;;;;;;12.60;99.90;;;;;;8406298;28;20019;-73
2022/09/18 03:22:30;;;;;;;;;;;12.50;99.90;;;;;;8406404;28;20034;-72
2022/09/18 03:26:31;;;;;;;;;;;12.60;99.90;;;;;;8402879;28;20367;-73
2022/09/18 03:30:33;;;;;;;;;;;12.50;99.90;;;;;;8411720;28;19930;-74
2022/09/18 03:34:35;;;;;;;;;;;12.50;99.90;;;;;;8413311;28;20066;-72
2022/09/18 03:38:36;;;;;;;;;;;12.50;99.90;;;;;;8428091;27;20023;-73
2022/09/18 03:42:38;;;;;;;;;;;12.50;99.90;;;;;;8411245;28;19930;-73
2022/09/18 03:46:40;;;;;;;;;;;12.40;99.90;;;;;;8399440;28;19931;-73
2022/09/18 03:50:41;;;;;;;;;;;12.40;99.90;;;;;;8405584;28;20231;-72
2022/09/18 03:54:43;;;;;;;;;;;12.40;99.90;;;;;;8402661;28;19924;-72
2022/09/18 03:58:45;;;;;;;;;;;12.40;99.90;;;;;;8409083;28;19928;-72
2022/09/18 04:02:46;;;;;;;;;;;12.40;99.90;;;;;;8410930;28;20903;-72
2022/09/18 04:06:48;;;;;;;;;;;12.40;99.90;;;;;;8397555;28;19925;-72
2022/09/18 04:10:50;;;;;;;;;;;12.40;99.90;;;;;;8406785;28;20403;-73
2022/09/18 04:14:51;;;;;;;;;;;12.40;99.90;;;;;;8392918;28;20030;-73
2022/09/18 04:18:53;;;;;;;;;;;12.40;99.90;;;;;;8403900;28;19928;-73
2022/09/18 04:22:55;;;;;;;;;;;12.40;99.90;;;;;;8405569;28;19946;-73
2022/09/18 04:26:56;;;;;;;;;;;12.40;99.90;;;;;;8413791;28;20015;-72
2022/09/18 04:30:58;;;;;;;;;;;12.40;99.90;;;;;;8408661;28;19928;-73
2022/09/18 04:35:00;;;;;;;;;;;12.40;99.90;;;;;;8416166;28;20352;-73
2022/09/18 04:39:02;;;;;;;;;;;12.40;99.90;;;;;;8415271;28;20018;-73
2022/09/18 04:43:04;;;;;;;;;;;12.40;99.90;;;;;;8411913;28;19969;-73
2022/09/18 04:47:06;;;;;;;;;;;12.50;99.90;;;;;;8401435;28;19934;-73
2022/09/18 04:51:08;;;;;;;;;;;12.50;99.90;;;;;;8406875;28;19932;-73
2022/09/18 04:55:09;;;;;;;;;;;12.50;99.90;;;;;;8413657;28;19932;-73
2022/09/18 04:59:11;;;;;;;;;;;12.40;99.90;;;;;;8393820;28;20299;-73
2022/09/18 05:03:12;;;;;;;;;;;12.40;99.90;;;;;;8401899;28;20342;-73
2022/09/18 05:07:14;;;;;;;;;;;12.40;99.90;;;;;;8390353;28;19928;-73
2022/09/18 05:11:16;;;;;;;;;;;12.40;99.90;;;;;;8403497;28;20318;-73
2022/09/18 05:15:18;;;;;;;;;;;12.30;99.90;;;;;;8401169;28;19934;-72
2022/09/18 05:19:20;;;;;;;;;;;12.30;99.90;;;;;;8408427;28;19935;-72
2022/09/18 05:23:21;;;;;;;;;;;12.30;99.90;;;;;;8415171;28;19934;-72
2022/09/18 05:37:29;;;;;;;;;;;12.20;99.90;;;;;;8407362;28;19920;-72
2022/09/18 05:41:31;;;;;;;;;;;12.20;99.90;;;;;;8407684;28;20404;-73
2022/09/18 05:45:33;;;;;;;;;;;12.30;99.90;;;;;;8431401;27;19924;-72
2022/09/18 05:49:34;;;;;;;;;;;12.30;99.90;;;;;;8403728;28;19951;-72
2022/09/18 05:53:36;;;;;;;;;;;12.30;99.90;;;;;;8407207;28;20018;-73
2022/09/18 05:57:38;;;;;;;;;;;12.30;99.90;;;;;;8410582;28;19928;-73
2022/09/18 06:01:39;;;;;;;;;;;12.40;99.90;;;;;;8404747;28;19935;-73
2022/09/18 06:05:53;;;;;;;;;;;12.40;99.90;;;;;;8411454;28;20363;-73
2022/09/18 06:09:54;;;;;;;;;;;12.40;99.90;;;;;;8409417;28;19971;-72
2022/09/18 06:13:56;;;;;;;;;;;12.50;99.90;;;;;;8439690;27;20401;-73
2022/09/18 06:17:57;;;;;;;;;;;12.50;99.90;;;;;;8414553;28;19930;-72
2022/09/18 06:21:59;;;;;;;;;;;12.60;99.90;;;;;;8414738;28;20452;-73
2022/09/18 06:26:02;;;;;;;;;;;12.60;99.90;;;;;;8392275;28;20019;-72
2022/09/18 06:30:04;;;;;;;;;;;12.60;99.90;;;;;;8390840;28;19924;-73
2022/09/18 06:34:06;;;;;;;;;;;12.60;99.90;;;;;;8401925;28;20000;-73
2022/09/18 06:38:08;;;;;;;;;;;12.70;99.90;;;;;;8418593;28;19930;-73
2022/09/18 06:42:10;;;;;;;;;;;12.70;99.90;;;;;;8421011;28;19939;-73
2022/09/18 06:46:11;;;;;;;;;;;12.70;99.90;;;;;;8411137;28;19924;-73
2022/09/18 06:50:13;;;;;;;;;;;12.60;99.90;;;;;;8394815;28;20295;-73
2022/09/18 06:54:15;;;;;;;;;;;12.60;99.90;;;;;;8408351;28;20031;-73
2022/09/18 06:58:17;;;;;;;;;;;12.60;99.90;;;;;;8418967;28;19928;-73
2022/09/18 07:02:19;;;;;;;;;;;12.70;99.90;;;;;;8406083;28;19983;-73
2022/09/18 07:06:21;;;;;;;;;;;12.70;99.90;;;;;;8391161;28;20378;-73
2022/09/18 07:10:23;;;;;;;;;;;12.80;99.90;;;;;;8385047;28;20024;-73
2022/09/18 07:14:25;;;;;;;;;;;12.80;99.90;;;;;;8382502;28;19982;-73
2022/09/18 07:18:26;;;;;;;;;;;12.80;99.90;;;;;;8378148;28;20383;-73
2022/09/18 07:22:28;;;;;;;;;;;12.90;99.90;;;;;;8380002;28;20038;-73
2022/09/18 07:26:30;;;;;;;;;;;12.90;99.90;;;;;;8382630;28;20380;-73
2022/09/18 07:30:31;;;;;;;;;;;13.00;99.90;;;;;;8380006;28;19951;-73
2022/09/18 07:34:33;;;;;;;;;;;13.00;99.90;;;;;;8380999;28;20008;-72
2022/09/18 07:38:34;;;;;;;;;;;13.00;99.90;;;;;;8381527;28;19929;-72
2022/09/18 07:42:36;;;;;;;;;;;13.10;99.90;;;;;;8378739;28;19995;-73
2022/09/18 07:46:38;;;;;;;;;;;13.10;99.90;;;;;;8383626;28;19973;-73
2022/09/18 07:50:40;;;;;;;;;;;13.20;99.90;;;;;;8377070;28;19975;-73
2022/09/18 07:54:41;;;;;;;;;;;13.30;99.90;;;;;;8383883;28;19928;-73
2022/09/18 07:58:43;;;;;;;;;;;13.30;99.90;;;;;;8378999;28;19928;-73
2022/09/18 08:02:44;;;;;;;;;;;13.40;99.90;;;;;;8378652;28;19935;-73
2022/09/18 08:06:50;;;;;;;;;;;13.40;99.90;;;;;;8380747;28;19927;-73
2022/09/18 08:10:54;;;;;;;;;;;13.50;99.90;;;;;;8372505;28;20725;-73
2022/09/18 08:14:55;;;;;;;;;;;13.50;99.90;;;;;;8380343;28;20647;-73
2022/09/18 08:18:57;;;;;;;;;;;13.60;99.90;;;;;;8377198;28;19964;-73
2022/09/18 08:23:02;;;;;;;2.30;0.70;;;13.70;99.90;;;;;;8381665;28;19928;-73
2022/09/18 08:27:04;;;;;;;2.67;0.60;;;13.70;99.90;;;;;;8376353;28;20060;-73
2022/09/18 08:31:06;;;;;;;2.90;0.90;;;13.70;99.90;;;;;;8379799;28;20412;-73
2022/09/18 08:35:09;;;;;;;2.00;0.70;;;13.60;99.90;;;;;;8378239;28;20023;-73
2022/09/18 08:39:11;;;;;;;;;;;13.50;99.90;;;;;;8376609;28;20109;-73
2022/09/18 08:43:27;;;;;;;1.93;0.60;;;13.40;99.90;;;;;;8378052;28;20273;-73
2022/09/18 08:47:40;;;;;;;2.80;0.50;;;13.40;99.90;;;;;;8378037;28;20491;-73
2022/09/18 08:52:08;;;;;;;1.63;0.60;;;13.40;99.90;;;;;;8379048;28;20036;-72
2022/09/18 08:56:15;;;;;;;3.90;0.70;;;13.50;99.90;;;;;;8383339;28;20516;-73
2022/09/18 09:00:18;;;;;;;;;;;13.50;99.90;;;;;;8384157;28;20049;-73
2022/09/18 09:04:27;;;;;;;3.33;0.88;;;13.60;99.90;;;;;;8388352;28;19927;-73
2022/09/18 09:08:35;;;;;;;;;;;13.50;99.90;;;;;;8385515;28;20083;-73
2022/09/18 09:12:53;;;;;;;2.73;0.80;;;13.50;99.90;;;;;;8384200;28;19933;-73
2022/09/18 09:17:08;;;;;;;2.75;0.77;;;13.50;99.90;;;;;;8383601;28;19924;-73
2022/09/18 09:21:21;;;;;;;;;;;13.50;99.90;;;;;;8382917;28;20113;-73
2022/09/18 09:25:31;;;;;;;4.40;0.87;;;13.40;99.90;;;;;;8383212;28;19930;-73
2022/09/18 09:29:38;;;;;;;4.80;1.00;;;13.40;99.90;;;;;;8381475;28;20059;-74
2022/09/18 09:34:00;;;;;;;1.93;0.60;;;13.40;99.90;;;;;;8384640;28;20094;-73
2022/09/18 09:38:12;;;;;;;;;;;13.40;99.90;;;;;;8389473;28;20048;-74
2022/09/18 09:42:17;;;;;;;;;;;13.40;99.90;;;;;;8388448;28;19971;-74
2022/09/18 09:56:27;;;;;;;;;;;13.50;99.90;;;;;;8384609;28;19968;-73
2022/09/18 10:00:33;;;;;;;;;;;13.50;99.90;;;;;;8382678;28;20010;-73
2022/09/18 10:04:35;;;;;;;;;;;13.50;99.90;;;;;;8412933;27;20655;-74
2022/09/18 10:09:03;;;;;;;;;;;13.50;99.90;;;;;;8383774;28;19928;-73
2022/09/18 10:13:15;;;;;;;3.97;0.82;;;13.60;99.90;;;;;;8373965;28;19962;-74
2022/09/18 10:17:19;;;;;;;2.97;0.77;;;13.60;99.90;;;;;;8385231;28;20048;-73
2022/09/18 10:21:25;;;;;;;3.63;0.80;;;13.70;99.90;;;;;;8378422;28;20041;-73
2022/09/18 10:26:00;;;;;;;4.63;0.93;;;13.70;99.90;;;;;;8386198;28;20488;-74
2022/09/18 10:30:12;;;;;;;;;;;13.70;99.90;;;;;;8373241;28;20930;-74
2022/09/18 10:34:31;;;;;;;;;;;13.80;99.90;;;;;;8392297;28;19955;-74
2022/09/18 10:38:33;;;;;;;;;;;13.90;99.90;;;;;;8381845;28;19929;-73
2022/09/18 10:42:35;;;;;;;;;;;13.90;99.90;;;;;;8383965;28;19942;-74
2022/09/18 10:46:39;;;;;;;;;;;14.00;99.90;;;;;;8387607;28;19920;-73
2022/09/18 10:50:54;;;;;;;;;;;14.00;99.90;;;;;;8375441;28;19935;-73
2022/09/18 10:55:01;;;;;;;;;;;14.00;99.90;;;;;;8390782;28;20048;-74
2022/09/18 10:59:21;;;;;;;;;;;14.00;99.90;;;;;;8375908;28;19928;-73
2022/09/18 11:03:32;;;;;;;;;;;14.00;99.90;;;;;;8397243;28;20121;-74
2022/09/18 11:07:34;;;;;;;3.28;1.30;;;14.00;99.90;;;;;;8379108;28;19930;-74
2022/09/18 11:11:41;;;;;;;5.03;0.90;;;13.90;99.90;;;;;;8374832;28;20488;-74
2022/09/18 11:15:48;;;;;;;;;;;13.90;99.90;;;;;;8379910;28;20044;-73
2022/09/18 11:19:51;;;;;;;;;;;13.80;99.90;;;;;;8383098;28;19927;-73
2022/09/18 11:24:03;;;;;;;;;;;13.70;99.90;;;;;;8376012;28;19928;-73
2022/09/18 11:28:19;;;;;;;;;;;13.70;99.90;;;;;;8384057;28;19946;-73
2022/09/18 11:43:08;;;;;;;;;;;13.80;99.90;;;;;;8384167;28;20482;-73
2022/09/18 11:47:26;;;;;;;;;;;13.80;99.90;;;;;;8385036;28;19923;-73
2022/09/18 11:51:34;;;;;;;;;;;13.80;99.90;;;;;;8378683;28;20015;-73
2022/09/18 11:55:43;;;;;;;;;;;13.80;99.90;;;;;;8390162;28;19924;-73
2022/09/18 12:00:03;;;;;;;6.78;1.10;;;13.80;99.90;;;;;;8389550;28;20059;-73
2022/09/18 12:09:00;;;;;;;;;;;13.70;99.90;;;;;;8390443;28;20257;-73
2022/09/18 12:13:05;;;;;;;;;;;13.70;99.90;;;;;;8383014;28;20338;-73
2022/09/18 12:17:13;;;;;;;;;;;13.70;99.90;;;;;;8386308;28;20294;-73
2022/09/18 12:21:16;;;;;;;;;;;13.70;99.90;;;;;;8381436;28;19928;-73
2022/09/18 12:25:20;;;;;;;;;;;13.70;99.90;;;;;;8378416;28;19951;-73
2022/09/18 12:29:29;;;;;;;;;;;13.70;99.90;;;;;;8417822;27;20020;-73
2022/09/18 12:33:35;;;;;;;;;;;13.70;99.90;;;;;;8379746;28;19954;-72
2022/09/18 12:37:47;;;;;;;;;;;13.70;99.90;;;;;;8381633;28;19935;-73
2022/09/18 12:42:11;;;;;;;;;;;13.70;99.90;;;;;;8408779;27;19931;-73
2022/09/18 12:46:20;;;;;;;;;;;13.70;99.90;;;;;;8385922;28;19950;-73
2022/09/18 12:50:37;;;;;;;;;;;13.60;99.90;;;;;;8382342;28;19955;-74
2022/09/18 12:54:58;;;;;;;;;;;13.60;99.90;;;;;;8381408;28;20010;-73
2022/09/18 12:59:09;;;;;;;;;;;13.60;99.90;;;;;;8379801;28;19931;-74
2022/09/18 13:03:11;;;;;;;;;;;13.60;99.90;;;;;;8380679;28;19969;-74
2022/09/18 13:07:16;;;;;;;;;;;13.50;99.90;;;;;;8382227;28;20000;-74
2022/09/18 13:11:28;;;;;;;;;;;13.50;99.90;;;;;;8378435;28;19939;-73
2022/09/18 13:15:51;;;;;;;;;;;13.50;99.90;;;;;;8376871;28;19993;-73
2022/09/18 13:20:06;;;;;;;;;;;13.40;99.90;;;;;;8376359;28;19932;-74
2022/09/18 13:24:19;;;;;;;;;;;13.40;99.90;;;;;;8378309;28;19938;-73
2022/09/18 13:28:21;;;;;;;;;;;13.40;99.90;;;;;;8381916;28;20043;-73
2022/09/18 13:32:32;;;;;;;;;;;13.40;99.90;;;;;;8376455;28;20277;-73
2022/09/18 13:36:42;;;;;;;;;;;13.30;99.90;;;;;;8378520;28;19936;-73
2022/09/18 13:40:45;;;;;;;;;;;13.30;99.90;;;;;;8383242;28;19928;-72
2022/09/18 13:44:48;;;;;;;;;;;13.30;99.90;;;;;;8385426;28;19928;-73
2022/09/18 13:48:54;;;;;;;;;;;13.20;99.90;;;;;;8416459;27;21215;-73
2022/09/18 13:52:57;;;;;;;;;;;13.20;99.90;;;;;;8382665;28;20023;-73
2022/09/18 13:57:09;;;;;;;;;;;13.30;99.90;;;;;;8386920;28;20408;-73
2022/09/18 14:01:31;;;;;;;;;;;13.20;99.90;;;;;;8378129;28;20035;-73
2022/09/18 14:05:34;;;;;;;;;;;13.20;99.90;;;;;;8380813;28;20016;-73
2022/09/18 14:09:54;;;;;;;;;;;13.20;99.90;;;;;;8381448;28;20421;-73
2022/09/18 14:13:57;;;;;;;;;;;13.30;99.90;;;;;;8380618;28;19932;-73
2022/09/18 14:18:12;;;;;;;;;;;13.30;99.90;;;;;;8386305;28;20566;-73
2022/09/18 14:22:22;;;;;;;;;;;13.30;99.90;;;;;;8372955;28;20023;-73
2022/09/18 14:26:35;;;;;;;;;;;13.30;99.90;;;;;;8385873;28;19935;-73
2022/09/18 14:30:37;;;;;;;;;;;13.20;99.90;;;;;;8385996;28;19974;-72
2022/09/18 14:34:40;;;;;;;;;;;13.30;99.90;;;;;;8377563;28;21396;-72
2022/09/18 14:38:41;;;;;;;;;;;13.30;99.90;;;;;;8376991;28;19971;-72
2022/09/18 14:42:43;;;;;;;;;;;13.30;99.90;;;;;;8387385;28;19938;-72
2022/09/18 14:46:52;;;;;;;;;;;13.30;99.90;;;;;;8397457;28;19970;-72
2022/09/18 14:51:21;;;;;;;;;;;13.20;99.90;;;;;;8374272;28;20034;-73
2022/09/18 14:55:34;;;;;;;;;;;13.10;99.90;;;;;;8396848;28;19991;-73
2022/09/18 14:59:36;;;;;;;;;;;13.10;99.90;;;;;;8386092;28;19935;-72
2022/09/18 15:03:40;;;;;;;;;;;13.00;99.90;;;;;;8386927;28;20026;-73
2022/09/18 15:07:46;;;;;;;;;;;13.10;99.90;;;;;;8389129;28;19924;-73
2022/09/18 15:11:49;;;;;;;;;;;13.10;99.90;;;;;;8387492;28;19924;-73
2022/09/18 15:16:03;;;;;;;;;;;13.10;99.90;;;;;;8391391;28;19935;-73
2022/09/18 15:20:07;;;;;;;;;;;13.10;99.90;;;;;;8381606;28;19932;-73
2022/09/18 15:24:13;;;;;;;;;;;13.10;99.90;;;;;;8384202;28;19924;-72
2022/09/18 15:28:16;;;;;;;;;;;13.00;99.90;;;;;;8396877;28;20016;-72
2022/09/18 15:32:23;;;;;;;;;;;13.00;99.90;;;;;;8385529;28;19932;-72
2022/09/18 15:36:25;;;;;;;;;;;13.00;99.90;;;;;;8383182;28;20367;-73
2022/09/18 15:40:28;;;;;;;;;;;13.00;99.90;;;;;;8387018;28;19942;-72
2022/09/18 15:44:33;;;;;;;;;;;12.90;99.90;;;;;;8389397;28;19928;-72
2022/09/18 15:48:36;;;;;;;;;;;12.90;99.90;;;;;;8381207;28;19932;-73
2022/09/18 15:52:40;;;;;;;;;;;12.90;99.90;;;;;;8380372;28;19972;-72
2022/09/18 15:56:52;;;;;;;;;;;12.80;99.90;;;;;;8383194;28;19928;-72
2022/09/18 16:00:55;;;;;;;;;;;12.80;99.90;;;;;;8388121;28;19928;-72
2022/09/18 16:05:05;;;;;;;;;;;12.80;99.90;;;;;;8387499;28;20005;-72
2022/09/18 16:09:20;;;;;;;;;;;12.80;99.90;;;;;;8379978;28;19974;-73
2022/09/18 16:13:21;;;;;;;;;;;12.80;99.90;;;;;;8384532;28;20397;-73
2022/09/18 16:17:29;;;;;;;;;;;12.80;99.90;;;;;;8385923;28;19929;-73
2022/09/18 16:21:40;;;;;;;;;;;12.80;99.90;;;;;;8384945;28;19932;-73
2022/09/18 16:25:43;;;;;;;;;;;12.80;99.90;;;;;;8390287;28;20380;-72
2022/09/18 16:29:44;;;;;;;;;;;12.70;99.90;;;;;;8386940;28;19928;-72
2022/09/18 16:33:56;;;;;;;;;;;12.70;99.90;;;;;;8384819;28;20303;-73
2022/09/18 16:37:58;;;;;;;;;;;12.70;99.90;;;;;;8415058;27;20815;-72
2022/09/18 16:42:10;;;;;;;;;;;12.60;99.90;;;;;;8392500;28;19929;-73
2022/09/18 16:46:12;;;;;;;;;;;12.60;99.90;;;;;;8385913;28;20019;-73
2022/09/18 16:50:17;;;;;;;;;;;12.50;99.90;;;;;;8383835;28;19925;-73
2022/09/18 16:54:18;;;;;;;;;;;12.50;99.90;;;;;;8384456;28;19939;-73
2022/09/18 16:58:21;;;;;;;;;;;12.50;99.90;;;;;;8414113;27;19939;-72
2022/09/18 17:02:22;;;;;;;;;;;12.50;99.90;;;;;;8416875;27;19931;-72
2022/09/18 17:06:26;;;;;;;;;;;12.40;99.90;;;;;;8386152;28;19928;-73
2022/09/18 17:10:30;;;;;;;;;;;12.30;99.90;;;;;;8384701;28;20012;-72
2022/09/18 17:14:33;;;;;;;;;;;12.30;99.90;;;;;;8388076;28;20019;-72
2022/09/18 17:18:35;;;;;;;;;;;12.20;99.90;;;;;;8387094;28;19929;-73
2022/09/18 17:22:36;;;;;;;;;;;12.20;99.90;;;;;;8389829;28;20007;-73
2022/09/18 17:26:39;;;;;;;;;;;12.20;99.90;;;;;;8391044;28;19962;-73
2022/09/18 17:30:41;;;;;;;;;;;12.20;99.90;;;;;;8391608;28;19939;-72
2022/09/18 17:34:42;;;;;;;;;;;12.20;99.90;;;;;;8391693;28;19931;-72
2022/09/18 17:38:44;;;;;;;;;;;12.20;99.90;;;;;;8386924;28;19924;-72
2022/09/18 17:42:46;;;;;;;;;;;12.10;99.90;;;;;;8390266;28;20387;-73
2022/09/18 17:46:51;;;;;;;;;;;12.00;99.90;;;;;;8396303;28;19931;-72
2022/09/18 17:50:59;;;;;;;;;;;12.00;99.90;;;;;;8420845;27;20328;-72
2022/09/18 17:55:01;;;;;;;;;;;11.90;99.90;;;;;;8377895;28;19928;-72
2022/09/18 17:59:04;;;;;;;;;;;11.80;99.90;;;;;;8384160;28;20007;-72
2022/09/18 18:03:05;;;;;;;;;;;11.80;99.90;;;;;;8384001;28;20307;-72
2022/09/18 18:07:08;;;;;;;;;;;11.70;99.90;;;;;;8388446;28;20023;-72
2022/09/18 18:11:11;;;;;;;;;;;11.70;99.90;;;;;;8382545;28;19933;-73
2022/09/18 18:15:12;;;;;;;;;;;11.70;99.90;;;;;;8376927;28;20520;-73
2022/09/18 18:19:14;;;;;;;3.78;0.90;;;11.60;99.90;;;;;;8383335;28;19931;-73
2022/09/18 18:23:16;;;;;;;2.78;1.00;;;11.60;99.90;;;;;;8386785;28;20054;-72
2022/09/18 18:27:19;;;;;;;3.45;0.93;;;11.60;99.90;;;;;;8399826;28;20052;-73
2022/09/18 18:31:24;;;;;;;2.63;0.90;;;11.60;99.90;;;;;;8400911;28;20050;-72
2022/09/18 18:35:26;;;;;;;4.70;1.30;;;11.60;99.90;;;;;;8393501;28;20087;-72
2022/09/18 18:39:28;;;;;;;;;;;11.50;99.90;;;;;;8399467;28;19932;-73
2022/09/18 18:43:33;;;;;;;;;;;11.50;99.90;;;;;;8396087;28;20427;-72
2022/09/18 18:47:36;;;;;;;3.45;1.00;;;11.50;99.90;;;;;;8394102;28;20283;-73
2022/09/18 18:51:44;;;;;;;3.63;1.33;;;11.50;99.90;;;;;;8393087;28;20047;-73
2022/09/18 18:55:48;;;;;;;7.18;1.15;;;11.50;99.90;;;;;;8400412;28;20655;-73
2022/09/18 18:59:50;;;;;;;4.30;1.13;;;11.50;99.90;;;;;;8386833;28;20075;-72
2022/09/18 19:03:58;;;;;;;7.65;1.20;;;11.50;99.90;;;;;;8395721;28;20054;-73
2022/09/18 19:08:00;;;;;;;5.35;1.30;;;11.50;99.90;;;;;;8387789;28;20048;-73
2022/09/18 19:12:02;;;;;;;3.60;0.77;;;11.50;99.90;;;;;;8395261;28;20054;-73
2022/09/18 19:16:04;;;;;;;4.20;1.02;;;11.50;99.90;;;;;;8394814;28;20057;-73
2022/09/18 19:20:06;;;;;;;7.45;1.13;;;11.50;99.90;;;;;;8389776;28;20078;-73
2022/09/18 19:24:12;;;;;;;4.80;1.20;;;11.40;99.90;;;;;;8399016;28;20408;-73
2022/09/18 19:28:17;;;;;;;5.15;1.50;;;11.50;99.90;;;;;;8395859;28;20545;-73
2022/09/18 19:32:19;;;;;;;6.82;1.30;;;11.50;99.90;;;;;;8389191;28;20040;-73
2022/09/18 19:36:26;;;;;;;7.40;1.52;;;11.50;99.90;;;;;;8385162;28;20052;-73
2022/09/18 19:40:33;;;;;;;6.72;1.88;;;11.40;99.90;;;;;;8382841;28;20365;-74
2022/09/18 19:44:57;;;;;;;3.95;1.30;;;11.40;99.90;;;;;;8384625;28;20408;-73
2022/09/18 19:48:59;;;;;;;7.93;1.90;;;11.40;99.90;;;;;;8387255;28;20526;-73
2022/09/18 19:53:01;;;;;;;7.10;1.50;;;11.40;99.90;;;;;;8379717;28;20094;-73
2022/09/18 19:57:03;;;;;;;8.17;1.23;;;11.40;99.90;;;;;;8384611;28;20059;-73
2022/09/18 20:01:09;;;;;;;3.72;1.38;;;11.40;99.90;;;;;;8385188;28;20349;-73
2022/09/18 20:05:11;;;;;;;6.63;1.50;;;11.40;99.90;;;;;;8385188;28;20109;-74
2022/09/18 20:09:12;;;;;;;7.05;1.50;;;11.30;99.90;;;;;;8382336;28;20101;-73
2022/09/18 20:13:14;;;;;;;4.93;1.50;;;11.30;99.90;;;;;;8387372;28;20417;-73
2022/09/18 20:17:16;;;;;;;7.00;1.80;;;11.30;99.90;;;;;;8382447;28;20086;-73
2022/09/18 20:21:20;;;;;;;5.40;1.48;;;11.30;99.90;;;;;;8390671;28;20789;-74
2022/09/18 20:25:23;;;;;;;8.35;1.50;;;11.30;99.90;;;;;;8390311;28;20048;-73
2022/09/18 20:29:26;;;;;;;5.47;1.40;;;11.20;99.90;;;;;;8395054;28;20135;-73
2022/09/18 20:33:28;;;;;;;5.57;1.30;;;11.20;99.90;;;;;;8383048;28;20043;-73
2022/09/18 20:37:31;;;;;;;5.65;1.50;;;11.20;99.90;;;;;;8380586;28;20053;-74
2022/09/18 20:41:34;;;;;;;5.03;1.52;;;11.20;99.90;;;;;;8379808;28;20056;-73
2022/09/18 20:45:36;;;;;;;7.28;1.35;;;11.20;99.90;;;;;;8385259;28;20068;-73
2022/09/18 20:49:38;;;;;;;10.02;1.85;;;11.20;99.90;;;;;;8371942;28;20047;-73
2022/09/18 20:53:43;;;;;;;5.53;1.70;;;11.20;99.90;;;;;;8370485;28;20151;-73
2022/09/18 20:57:45;;;;;;;4.47;1.50;;;11.10;99.90;;;;;;8381404;28;20048;-74
2022/09/18 21:01:47;;;;;;;7.75;1.48;;;11.20;99.90;;;;;;8385207;28;20076;-73
2022/09/18 21:05:49;;;;;;;4.65;1.40;;;11.10;99.90;;;;;;8407331;28;20445;-73
2022/09/18 21:10:12;;;;;;;7.90;1.50;;;11.10;99.90;;;;;;8413348;28;20105;-74
2022/09/18 21:14:14;;;;;;;3.53;1.55;;;11.10;99.90;;;;;;8401633;28;20041;-73
2022/09/18 21:18:17;;;;;;;7.13;1.50;;;11.10;99.90;;;;;;8429041;27;20048;-74
2022/09/18 21:22:19;;;;;;;6.65;1.50;;;11.10;99.90;;;;;;8405099;28;20048;-73
2022/09/18 21:26:32;;;;;;;4.10;1.35;;;11.10;99.90;;;;;;8389497;28;20124;-73
2022/09/18 21:30:33;;;;;;;4.10;1.50;;;11.10;99.90;;;;;;8405627;28;20044;-73
2022/09/18 21:34:35;;;;;;;8.35;1.63;;;11.10;99.90;;;;;;8395545;28;20371;-73
2022/09/18 21:38:38;;;;;;;3.75;1.40;;;11.10;99.90;;;;;;8385866;28;20063;-74
2022/09/18 21:42:42;;;;;;;11.45;1.60;;;11.10;99.90;;;;;;8382002;28;20060;-73
2022/09/18 21:46:46;;;;;;;5.95;1.42;;;11.10;99.90;;;;;;8389922;28;20044;-74
2022/09/18 21:50:48;;;;;;;7.85;1.50;;;11.10;99.90;;;;;;8399918;28;20056;-73
2022/09/18 21:54:50;;;;;;;5.60;1.40;;;11.10;99.90;;;;;;8394813;28;20044;-73
2022/09/18 21:58:53;;;;;;;8.32;1.52;;;11.00;99.90;;;;;;8401538;28;20139;-73
2022/09/18 22:02:55;;;;;;;7.47;1.25;;;11.10;99.90;;;;;;8389459;28;20044;-73
2022/09/18 22:07:00;;;;;;;6.90;1.30;;;11.10;99.90;;;;;;8398265;28;20050;-73
2022/09/18 22:11:03;;;;;;;8.13;1.50;;;11.10;99.90;;;;;;8408527;28;20048;-73
2022/09/18 22:15:05;;;;;;;6.57;1.70;;;11.10;99.90;;;;;;8401605;28;20056;-73
2022/09/18 22:19:09;;;;;;;8.98;1.77;;;11.20;99.90;;;;;;8391474;28;20550;-73
2022/09/18 22:23:11;;;;;;;6.13;1.35;;;11.20;99.90;;;;;;8392272;28;20134;-73
2022/09/18 22:27:13;;;;;;;6.30;1.30;;;11.30;99.90;;;;;;8392813;28;20136;-73
2022/09/18 22:31:15;;;;;;;5.78;1.20;;;11.30;99.90;;;;;;8411755;28;20538;-74
2022/09/18 22:35:16;;;;;;;5.25;1.10;;;11.30;99.90;;;;;;8396274;28;20044;-74
2022/09/18 22:39:20;;;;;;;4.22;1.30;;;11.30;99.90;;;;;;8386703;28;20106;-73
2022/09/18 22:43:21;;;;;;;4.47;1.42;;;11.30;99.90;;;;;;8400497;28;20117;-74
2022/09/18 22:47:23;;;;;;;4.15;1.10;;;11.30;99.90;;;;;;8393672;28;20525;-73
2022/09/18 22:51:26;;;;;;;6.13;1.30;;;11.20;99.90;;;;;;8398998;28;20467;-73
2022/09/18 22:55:30;;;;;;;4.55;1.23;;;11.20;99.90;;;;;;8401556;28;20407;-74
2022/09/18 22:59:31;;;;;;;7.95;1.25;;;11.10;99.90;;;;;;8386255;28;21763;-73
2022/09/18 23:03:33;;;;;;;7.70;1.30;;;11.10;99.90;;;;;;8392219;28;20262;-73
2022/09/18 23:07:37;;;;;;;5.63;1.20;;;11.10;99.90;;;;;;8385323;28;20052;-73
2022/09/18 23:11:43;;;;;;;7.35;1.48;;;11.10;99.90;;;;;;8411832;28;20218;-73
2022/09/18 23:15:45;;;;;;;4.60;1.30;;;11.10;99.90;;;;;;8387349;28;20124;-73
2022/09/18 23:19:47;;;;;;;7.20;1.10;;;11.20;99.90;;;;;;8392389;28;20504;-74
2022/09/18 23:23:49;;;;;;;;;;;11.20;99.90;;;;;;8395254;28;19951;-73
2022/09/18 23:27:51;;;;;;;;;;;11.20;99.90;;;;;;8392234;28;20018;-74
2022/09/18 23:31:54;;;;;;;;;;;11.20;99.90;;;;;;8421284;28;19927;-73
2022/09/18 23:36:02;;;;;;;;;;;11.20;99.90;;;;;;8400789;28;19966;-73